Time;durP1;ratioP1;P1;durP2;ratioP2;P2;SDS_P1;SDS_P2;PMS_P1;PMS_P2;Temp;Humidity;BMP_temperature;BMP_pressure;BME280_temperature;BME280_humidity;BME280_pressure;Samples;Min_cycle;Max_cycle;Signal;HPM_P1;HPM_P2
2022/04/17 00:00:12;;;;;;;13.00;11.90;;;;;;;9.89;69.19;92597.59;4991650;28;20222;-77
2022/04/17 00:02:38;;;;;;;11.80;11.00;;;;;;;9.96;69.67;92613.66;4991357;28;20191;-78
2022/04/17 00:05:05;;;;;;;11.00;10.30;;;;;;;9.80;70.24;92607.06;4990700;28;20220;-77
2022/04/17 00:07:32;;;;;;;12.83;11.73;;;;;;;10.06;69.80;92625.84;4991097;28;20220;-77
2022/04/17 00:09:58;;;;;;;12.47;11.47;;;;;;;10.14;69.72;92628.69;4990994;28;20304;-77
2022/04/17 00:12:24;;;;;;;12.63;11.67;;;;;;;10.00;70.35;92635.56;4990939;28;20243;-77
2022/04/17 00:14:50;;;;;;;12.37;11.40;;;;;;;10.09;70.03;92628.72;4990723;28;20251;-77
2022/04/17 00:17:16;;;;;;;12.43;11.63;;;;;;;10.13;69.90;92618.53;4991256;28;20196;-77
2022/04/17 00:19:41;;;;;;;12.63;11.73;;;;;;;9.98;70.10;92601.16;4990601;28;20310;-77
2022/04/17 00:22:07;;;;;;;13.13;12.20;;;;;;;10.14;70.01;92605.22;4991231;28;20232;-77
2022/04/17 00:24:33;;;;;;;12.03;11.13;;;;;;;9.84;70.78;92597.63;4989705;28;20235;-77
2022/04/17 00:27:00;;;;;;;12.93;11.97;;;;;;;9.73;72.29;92603.97;4992276;28;20227;-76
2022/04/17 00:29:27;;;;;;;12.80;11.77;;;;;;;9.67;72.47;92594.63;4990171;28;20236;-77
2022/04/17 00:31:53;;;;;;;12.27;11.27;;;;;;;9.69;73.23;92605.56;4990851;28;20275;-77
2022/04/17 00:34:19;;;;;;;13.20;12.13;;;;;;;9.65;73.97;92597.50;4989748;28;20231;-77
2022/04/17 00:36:45;;;;;;;13.63;12.53;;;;;;;9.55;74.39;92600.22;4990356;28;20264;-78
2022/04/17 00:39:12;;;;;;;12.67;11.73;;;;;;;9.51;74.99;92606.22;4990244;28;20234;-78
2022/04/17 00:41:37;;;;;;;13.73;12.60;;;;;;;9.44;75.48;92601.31;4990034;28;20180;-78
2022/04/17 00:44:09;;;;;;;13.40;12.30;;;;;;;9.39;75.52;92583.13;4990349;28;20296;-77
2022/04/17 00:46:35;;;;;;;14.00;12.77;;;;;;;9.38;75.61;92597.22;4990465;28;20208;-78
2022/04/17 00:49:00;;;;;;;14.77;13.33;;;;;;;9.29;75.86;92592.84;4989769;28;20283;-77
2022/04/17 00:51:25;;;;;;;13.63;12.53;;;;;;;9.45;75.21;92599.47;4989872;28;20196;-76
2022/04/17 00:53:52;;;;;;;14.47;13.27;;;;;;;9.48;75.42;92597.13;4989693;28;20303;-78
2022/04/17 00:56:18;;;;;;;13.47;12.47;;;;;;;9.28;76.07;92586.06;4990831;28;20220;-76
2022/04/17 00:58:44;;;;;;;13.07;12.07;;;;;;;9.30;75.82;92586.56;4990412;28;20781;-77
2022/04/17 01:01:10;;;;;;;12.90;11.90;;;;;;;9.23;75.98;92586.09;4990494;28;20204;-77
2022/04/17 01:03:35;;;;;;;13.53;12.50;;;;;;;9.30;75.87;92586.56;4988099;28;20223;-76
2022/04/17 01:06:01;;;;;;;13.63;12.63;;;;;;;9.31;76.10;92575.09;4987843;28;20212;-76
2022/04/17 01:08:27;;;;;;;13.87;12.73;;;;;;;9.30;76.17;92573.53;4988782;28;20216;-77
2022/04/17 01:10:52;;;;;;;13.63;12.30;;;;;;;9.23;76.21;92573.09;4990256;28;20235;-76
2022/04/17 01:13:18;;;;;;;13.70;12.50;;;;;;;9.14;75.95;92566.88;4989972;28;20255;-77
2022/04/17 01:15:44;;;;;;;13.03;12.13;;;;;;;9.25;76.15;92565.75;4989612;28;20188;-76
2022/04/17 01:18:10;;;;;;;13.37;12.27;;;;;;;9.39;75.35;92564.09;4988912;28;20247;-76
2022/04/17 01:20:38;;;;;;;13.17;12.27;;;;;;;9.18;75.87;92560.84;4989938;28;20183;-77
2022/04/17 01:28:32;;;;;;;13.13;12.10;;;;;;;9.01;76.22;92578.66;4990290;28;20258;-78
2022/04/17 01:30:57;;;;;;;13.40;12.37;;;;;;;9.07;76.36;92574.22;4989847;28;20200;-77
2022/04/17 01:33:23;;;;;;;13.53;12.43;;;;;;;9.18;75.60;92578.31;4989960;28;20327;-77
2022/04/17 01:35:49;;;;;;;13.40;12.23;;;;;;;9.06;75.63;92583.06;4990200;28;20193;-78
2022/04/17 01:38:15;;;;;;;14.20;12.77;;;;;;;9.07;75.20;92548.97;4989665;28;20240;-77
2022/04/17 01:40:40;;;;;;;13.67;12.50;;;;;;;9.06;75.77;92576.03;4990026;28;20222;-79
2022/04/17 01:43:10;;;;;;;13.10;12.10;;;;;;;9.03;75.88;92581.00;4989736;28;20203;-77
2022/04/17 01:45:35;;;;;;;13.70;12.70;;;;;;;8.84;76.17;92552.19;4989178;28;21057;-77
2022/04/17 01:48:01;;;;;;;14.13;12.93;;;;;;;9.04;76.28;92572.91;4989639;28;20300;-77
2022/04/17 01:50:27;;;;;;;13.43;12.17;;;;;;;8.99;76.01;92566.97;4989739;28;20196;-76
2022/04/17 01:52:53;;;;;;;13.07;12.00;;;;;;;8.90;77.12;92581.59;4988925;28;20184;-78
2022/04/17 01:55:19;;;;;;;13.30;12.10;;;;;;;8.65;77.14;92537.47;4989754;28;20196;-78
2022/04/17 01:57:45;;;;;;;13.63;12.60;;;;;;;9.13;76.68;92573.94;4990694;28;20200;-78
2022/04/17 02:00:11;;;;;;;13.43;12.33;;;;;;;9.06;76.98;92572.66;4993182;28;20232;-77
2022/04/17 02:02:36;;;;;;;13.43;12.37;;;;;;;9.14;76.37;92564.25;4994081;28;20212;-78
2022/04/17 02:05:04;;;;;;;12.73;11.63;;;;;;;9.31;76.44;92582.91;4993208;28;20224;-78
2022/04/17 02:07:29;;;;;;;13.63;12.63;;;;;;;9.07;75.89;92543.75;4993485;28;20216;-78
2022/04/17 02:09:54;;;;;;;13.13;11.93;;;;;;;9.34;75.90;92564.13;4991910;28;20224;-79
2022/04/17 02:12:22;;;;;;;14.97;13.67;;;;;;;9.37;75.98;92551.34;4993696;28;20218;-78
2022/04/17 02:14:48;;;;;;;12.67;11.70;;;;;;;9.19;76.36;92553.81;4992856;28;20232;-79
2022/04/17 02:17:13;;;;;;;12.60;11.70;;;;;;;9.12;76.70;92545.56;4993568;28;20203;-78
2022/04/17 02:19:39;;;;;;;12.90;11.93;;;;;;;8.87;77.12;92522.28;4992474;28;20220;-78
2022/04/17 02:22:05;;;;;;;12.73;11.73;;;;;;;8.86;77.87;92525.91;4993305;28;20263;-78
2022/04/17 02:24:30;;;;;;;13.17;12.17;;;;;;;8.78;78.82;92524.66;4992698;28;20251;-78
2022/04/17 02:26:56;;;;;;;13.30;12.20;;;;;;;8.86;78.68;92528.50;4993824;28;20223;-80
2022/04/17 02:29:21;;;;;;;13.27;12.20;;;;;;;8.78;78.89;92536.91;4992902;28;20228;-80
2022/04/17 02:31:46;;;;;;;12.70;11.77;;;;;;;8.88;78.61;92534.22;4993053;28;20236;-79
2022/04/17 02:34:13;;;;;;;12.83;11.67;;;;;;;8.92;79.15;92540.47;4992569;28;20243;-79
2022/04/17 02:36:38;;;;;;;14.40;13.13;;;;;;;8.68;80.14;92544.75;4993265;28;20184;-79
2022/04/17 02:39:04;;;;;;;12.37;11.33;;;;;;;8.66;79.65;92524.22;4992748;28;20234;-79
2022/04/17 02:41:30;;;;;;;13.97;12.83;;;;;;;8.79;79.43;92512.44;4992689;28;20180;-78
2022/04/17 02:43:55;;;;;;;13.67;12.47;;;;;;;8.93;78.17;92531.59;4991860;28;20243;-80
2022/04/17 02:49:06;;;;;;;12.60;11.47;;;;;;;8.77;79.54;92532.72;4992495;28;20235;-78
2022/04/17 02:51:33;;;;;;;13.53;12.53;;;;;;;8.53;79.74;92521.41;4992542;28;20203;-79
2022/04/17 02:53:59;;;;;;;12.30;11.40;;;;;;;8.80;79.34;92535.56;4992461;28;20238;-78
2022/04/17 02:56:24;;;;;;;13.10;12.10;;;;;;;8.80;78.71;92538.19;4992466;28;20618;-78
2022/04/17 02:58:52;;;;;;;11.97;11.07;;;;;;;8.78;79.32;92534.31;4992236;28;20239;-78
2022/04/17 03:06:56;;;;;;;13.70;12.60;;;;;;;8.57;79.53;92528.41;4939130;28;20296;-78
2022/04/17 03:09:22;;;;;;;12.03;11.13;;;;;;;8.47;79.34;92515.44;4992116;28;20236;-79
2022/04/17 03:11:47;;;;;;;12.53;11.50;;;;;;;8.41;79.97;92502.72;4992383;28;20218;-80
2022/04/17 03:14:13;;;;;;;12.47;11.47;;;;;;;8.41;80.21;92523.53;4991851;28;20232;-78
2022/04/17 03:16:38;;;;;;;12.67;11.60;;;;;;;8.44;81.05;92518.59;4992247;28;20192;-78
2022/04/17 03:19:04;;;;;;;13.60;12.67;;;;;;;8.47;80.54;92533.66;4991524;28;20243;-79
2022/04/17 03:21:31;;;;;;;12.93;12.03;;;;;;;8.46;80.83;92533.94;4991657;28;20228;-78
2022/04/17 03:23:56;;;;;;;12.63;11.60;;;;;;;8.29;81.09;92499.66;4990293;28;20243;-78
2022/04/17 03:26:21;;;;;;;13.47;12.43;;;;;;;8.44;81.96;92528.19;4992100;28;20283;-78
2022/04/17 03:28:47;;;;;;;12.97;11.90;;;;;;;8.36;81.84;92531.38;4992079;28;20236;-80
2022/04/17 03:31:13;;;;;;;12.90;11.90;;;;;;;8.27;81.85;92497.34;4992215;28;20192;-77
2022/04/17 03:33:38;;;;;;;13.93;12.70;;;;;;;8.50;81.36;92527.16;4991463;28;20312;-79
2022/04/17 03:36:04;;;;;;;12.57;11.70;;;;;;;8.27;82.18;92532.94;4992109;28;20206;-81
2022/04/17 03:38:29;;;;;;;12.73;11.87;;;;;;;8.14;82.73;92522.06;4991292;28;20230;-79
2022/04/17 03:40:55;;;;;;;12.57;11.57;;;;;;;8.32;82.88;92535.53;4992035;28;20199;-78
2022/04/17 03:43:23;;;;;;;12.37;11.53;;;;;;;8.13;83.53;92530.91;4990576;28;20231;-79
2022/04/17 03:45:49;;;;;;;14.40;13.33;;;;;;;8.28;83.74;92545.69;4992428;28;20267;-78
2022/04/17 03:48:16;;;;;;;12.83;11.73;;;;;;;8.31;83.92;92545.19;4991230;28;20223;-79
2022/04/17 03:50:43;;;;;;;13.60;12.60;;;;;;;8.14;85.00;92550.66;4991325;28;20260;-78
2022/04/17 03:53:08;;;;;;;13.20;12.30;;;;;;;7.92;86.12;92531.22;4990076;28;20228;-79
2022/04/17 03:55:35;;;;;;;12.83;11.83;;;;;;;7.98;87.14;92546.53;4991702;28;20187;-79
2022/04/17 03:58:01;;;;;;;13.10;12.10;;;;;;;7.92;87.89;92550.19;4991562;28;20218;-79
2022/04/17 04:00:26;;;;;;;13.80;12.90;;;;;;;7.67;88.72;92505.31;4990477;28;20208;-79
2022/04/17 04:02:52;;;;;;;13.70;12.40;;;;;;;7.86;89.39;92543.44;4991109;28;20180;-79
2022/04/17 04:05:18;;;;;;;13.37;12.27;;;;;;;7.88;90.77;92538.78;4991713;28;20939;-79
2022/04/17 04:07:44;;;;;;;12.97;11.93;;;;;;;7.88;92.33;92537.97;4991160;28;20279;-79
2022/04/17 04:10:10;;;;;;;13.03;12.10;;;;;;;7.98;92.25;92524.97;4990775;28;20231;-78
2022/04/17 04:12:39;;;;;;;12.70;11.50;;;;;;;7.79;92.73;92516.19;4990911;28;20200;-79
2022/04/17 04:15:06;;;;;;;13.10;11.90;;;;;;;7.74;93.42;92503.19;4989924;28;20231;-79
2022/04/17 04:17:33;;;;;;;14.80;13.63;;;;;;;7.86;92.72;92480.31;4991039;28;20183;-79
2022/04/17 04:19:58;;;;;;;12.40;11.50;;;;;;;8.12;91.97;92531.94;4990203;28;20212;-79
2022/04/17 04:22:24;;;;;;;13.47;12.37;;;;;;;8.05;92.49;92525.47;4990550;28;20216;-79
2022/04/17 04:24:49;;;;;;;12.80;11.80;;;;;;;7.98;91.45;92536.13;4990262;28;20227;-79
2022/04/17 04:29:59;;;;;;;13.73;12.57;;;;;;;7.92;92.33;92537.19;4990605;28;20256;-78
2022/04/17 04:32:25;;;;;;;13.73;12.40;;;;;;;7.91;93.69;92527.84;4990857;28;20219;-78
2022/04/17 04:34:50;;;;;;;12.87;11.93;;;;;;;8.10;93.63;92517.66;4990311;28;20290;-77
2022/04/17 04:37:16;;;;;;;13.07;12.07;;;;;;;8.36;93.15;92531.38;4991078;28;20235;-78
2022/04/17 04:39:41;;;;;;;12.37;11.33;;;;;;;7.92;95.39;92529.38;4989908;28;20235;-78
2022/04/17 04:42:07;;;;;;;13.67;12.47;;;;;;;7.82;96.33;92528.66;4990756;28;20192;-78
2022/04/17 04:44:34;;;;;;;12.90;11.93;;;;;;;7.99;95.07;92501.31;4990484;28;20254;-78
2022/04/17 04:47:00;;;;;;;12.93;11.83;;;;;;;8.04;95.12;92532.50;4990725;28;20210;-78
2022/04/17 04:49:31;;;;;;;14.33;13.00;;;;;;;7.87;95.92;92519.03;4989129;28;20227;-78
2022/04/17 04:51:57;;;;;;;12.13;11.27;;;;;;;8.18;94.73;92536.09;4989833;28;20188;-78
2022/04/17 04:54:23;;;;;;;13.37;12.33;;;;;;;8.19;93.90;92527.25;4989624;28;20264;-78
2022/04/17 04:56:48;;;;;;;12.73;11.73;;;;;;;8.08;93.74;92511.94;4990808;28;20192;-78
2022/04/17 04:59:14;;;;;;;12.53;11.57;;;;;;;8.29;93.51;92526.47;4990394;28;20234;-78
2022/04/17 05:01:39;;;;;;;13.37;12.20;;;;;;;8.11;94.90;92517.38;4990083;28;20245;-78
2022/04/17 05:04:05;;;;;;;13.97;12.60;;;;;;;7.94;95.26;92523.94;4989316;28;20232;-79
2022/04/17 05:06:30;;;;;;;13.80;12.70;;;;;;;8.06;96.50;92522.59;4989990;28;20216;-78
2022/04/17 05:08:56;;;;;;;13.43;12.40;;;;;;;7.79;97.11;92522.16;4988503;28;20251;-79
2022/04/17 05:11:21;;;;;;;12.67;11.67;;;;;;;7.35;97.32;92495.22;4990442;28;20255;-79
2022/04/17 05:13:47;;;;;;;12.33;11.37;;;;;;;7.81;97.78;92512.25;4989567;28;20316;-78
2022/04/17 05:16:13;;;;;;;12.23;11.23;;;;;;;7.89;96.18;92527.31;4990352;28;20203;-78
2022/04/17 05:18:38;;;;;;;12.63;11.73;;;;;;;7.71;97.63;92504.50;4989317;28;20219;-78
2022/04/17 05:21:05;;;;;;;13.17;12.17;;;;;;;7.81;98.07;92522.66;4989606;28;20176;-79
2022/04/17 05:23:32;;;;;;;14.53;13.07;;;;;;;7.86;98.83;92533.03;4989497;28;20235;-78
2022/04/17 05:25:59;;;;;;;14.10;12.90;;;;;;;7.73;98.22;92518.03;4988960;28;20212;-78
2022/04/17 05:28:25;;;;;;;14.43;12.60;;;;;;;7.87;99.22;92524.22;4989883;28;20235;-79
2022/04/17 05:30:50;;;;;;;13.60;12.53;;;;;;;8.01;98.58;92519.25;4989930;28;20200;-78
2022/04/17 05:33:21;;;;;;;13.10;12.23;;;;;;;7.79;96.75;92521.38;4990739;28;20212;-78
2022/04/17 05:35:50;;;;;;;13.53;12.47;;;;;;;7.91;96.72;92530.44;4993527;28;20196;-78
2022/04/17 05:38:16;;;;;;;13.80;12.83;;;;;;;8.08;95.62;92528.31;4993153;28;20235;-78
2022/04/17 05:40:45;;;;;;;12.77;11.67;;;;;;;8.17;94.58;92524.13;4993907;28;20204;-78
2022/04/17 05:43:11;;;;;;;13.00;11.80;;;;;;;8.24;94.42;92523.09;4993262;28;20263;-78
2022/04/17 05:45:38;;;;;;;12.07;11.17;;;;;;;7.76;94.19;92525.28;4992934;28;20191;-78
2022/04/17 05:48:05;;;;;;;12.77;11.87;;;;;;;7.78;95.42;92533.56;4990556;28;20226;-79
2022/04/17 05:50:31;;;;;;;12.70;11.73;;;;;;;7.82;95.53;92511.25;4989950;28;20179;-79
2022/04/17 05:52:57;;;;;;;13.00;12.07;;;;;;;8.10;95.87;92534.03;4992884;28;20188;-78
2022/04/17 05:55:22;;;;;;;13.50;12.50;;;;;;;8.06;93.61;92525.19;4992782;28;20204;-78
2022/04/17 05:57:48;;;;;;;13.13;12.23;;;;;;;8.14;93.86;92513.47;4991613;28;20232;-79
2022/04/17 06:00:16;;;;;;;12.80;11.83;;;;;;;8.09;91.71;92519.47;4993149;28;20188;-78
2022/04/17 06:02:46;;;;;;;12.47;11.60;;;;;;;7.74;93.39;92503.19;4993196;28;20184;-77
2022/04/17 06:05:12;;;;;;;11.40;10.60;;;;;;;7.80;94.30;92517.72;4991120;28;20238;-78
2022/04/17 06:07:38;;;;;;;11.53;10.70;;;;;;;7.92;93.65;92490.41;4992176;28;20208;-78
2022/04/17 06:10:06;;;;;;;12.00;11.10;;;;;;;8.02;93.73;92513.78;4992490;28;20240;-77
2022/04/17 06:12:32;;;;;;;13.47;12.37;;;;;;;7.78;94.91;92512.03;4989138;28;20184;-79
2022/04/17 06:14:58;;;;;;;10.27;9.67;;;;;;;8.14;94.28;92513.47;4990148;28;20243;-80
2022/04/17 06:17:23;;;;;;;11.40;10.67;;;;;;;7.78;94.00;92504.25;4991051;28;20196;-79
2022/04/17 06:19:49;;;;;;;11.73;11.03;;;;;;;8.18;93.74;92514.50;4990306;28;20244;-78
2022/04/17 06:22:14;;;;;;;10.57;9.90;;;;;;;8.39;92.99;92497.03;4992113;28;20295;-79
2022/04/17 06:24:40;;;;;;;10.57;9.87;;;;;;;8.01;92.96;92499.25;4991535;28;20235;-79
2022/04/17 06:27:05;;;;;;;12.27;11.57;;;;;;;8.40;92.09;92501.19;4990830;28;20263;-79
2022/04/17 06:29:31;;;;;;;10.87;10.17;;;;;;;7.86;92.75;92460.28;4991498;28;20254;-77
2022/04/17 06:31:57;;;;;;;12.10;11.40;;;;;;;8.04;93.50;92470.13;4989997;28;20216;-77
2022/04/17 06:34:23;;;;;;;11.47;10.77;;;;;;;8.35;92.00;92509.00;4989729;28;20300;-79
2022/04/17 06:36:48;;;;;;;10.73;10.20;;;;;;;8.62;92.02;92509.41;4990965;28;20227;-78
2022/04/17 06:39:14;;;;;;;12.90;11.63;;;;;;;8.49;91.66;92470.94;4990883;28;20804;-78
2022/04/17 06:41:40;;;;;;;12.40;11.60;;;;;;;8.52;93.25;92488.63;4990627;28;20199;-78
2022/04/17 06:44:05;;;;;;;12.87;11.97;;;;;;;8.74;91.35;92507.25;4990060;28;20223;-80
2022/04/17 06:46:32;;;;;;;12.00;11.13;;;;;;;8.55;91.38;92506.31;4989104;28;20233;-78
2022/04/17 06:48:57;;;;;;;11.07;10.40;;;;;;;8.47;91.18;92512.84;4990998;28;20235;-79
2022/04/17 06:51:24;;;;;;;12.63;11.73;;;;;;;8.52;91.80;92509.44;4992112;28;20188;-79
2022/04/17 06:53:50;;;;;;;12.37;11.47;;;;;;;8.64;91.20;92521.09;4981769;28;20240;-79
2022/04/17 06:56:18;;;;;;;11.53;10.83;;;;;;;8.58;89.80;92516.16;4971452;28;20192;-79
2022/04/17 06:58:48;;;;;;;11.20;10.50;;;;;;;8.14;90.46;92467.44;4978658;28;20315;-78
2022/04/17 07:01:17;;;;;;;11.50;10.73;;;;;;;8.43;90.76;92500.66;4988787;28;20256;-79
2022/04/17 07:03:46;;;;;;;10.97;10.27;;;;;;;8.59;91.42;92517.75;4990551;28;20240;-79
2022/04/17 07:06:12;;;;;;;10.50;9.90;;;;;;;8.39;93.70;92510.03;4990042;28;20226;-78
2022/04/17 07:08:37;;;;;;;10.90;10.20;;;;;;;8.52;91.83;92519.84;4990799;28;20235;-78
2022/04/17 07:11:03;;;;;;;10.97;10.27;;;;;;;8.58;92.07;92514.34;4990921;28;20180;-78
2022/04/17 07:13:28;;;;;;;10.67;9.80;;;;;;;8.66;90.44;92515.59;4988786;28;20391;-78
2022/04/17 07:15:54;;;;;;;11.60;10.80;;;;;;;8.07;92.14;92490.38;4991075;28;20176;-81
2022/04/17 07:18:19;;;;;;;12.27;11.37;;;;;;;7.66;94.93;92511.53;4990349;28;20239;-79
2022/04/17 07:20:45;;;;;;;10.80;10.10;;;;;;;7.93;95.65;92502.38;4991741;28;20204;-79
2022/04/17 07:23:11;;;;;;;10.80;10.03;;;;;;;8.09;94.64;92501.25;4990789;28;20231;-79
2022/04/17 07:25:36;;;;;;;11.03;10.33;;;;;;;8.22;93.98;92514.75;4991336;28;20188;-79
2022/04/17 07:28:03;;;;;;;13.17;12.13;;;;;;;8.27;95.38;92523.34;4989810;28;20196;-77
2022/04/17 07:30:31;;;;;;;12.53;11.30;;;;;;;8.50;93.93;92522.72;4991273;28;20212;-78
2022/04/17 07:32:59;;;;;;;12.17;11.37;;;;;;;8.32;92.93;92488.72;4990414;28;20188;-78
2022/04/17 07:35:26;;;;;;;11.47;10.67;;;;;;;8.64;93.12;92528.13;4990655;28;20188;-78
2022/04/17 07:37:54;;;;;;;12.40;11.50;;;;;;;8.64;93.46;92528.13;4989442;28;20203;-79
2022/04/17 07:40:21;;;;;;;11.50;10.67;;;;;;;8.63;94.21;92518.75;4990125;28;20176;-79
2022/04/17 07:42:51;;;;;;;11.70;10.60;;;;;;;8.39;92.54;92502.25;4989319;28;20215;-80
2022/04/17 07:45:17;;;;;;;11.47;10.67;;;;;;;8.89;92.32;92520.16;4990477;28;20225;-81
2022/04/17 07:47:43;;;;;;;11.83;10.93;;;;;;;9.18;89.78;92521.03;4989589;28;20214;-79
2022/04/17 07:50:12;;;;;;;11.20;10.40;;;;;;;8.76;90.25;92486.94;4987918;28;20239;-79
2022/04/17 07:52:39;;;;;;;10.57;9.97;;;;;;;8.51;90.65;92474.06;4989803;28;20188;-78
2022/04/17 07:55:05;;;;;;;10.50;9.70;;;;;;;8.73;90.99;92516.09;4970707;28;20236;-79
2022/04/17 07:57:53;;;;;;;11.33;10.53;;;;;;;8.33;89.68;92451.28;4970914;28;20239;-80
2022/04/17 08:00:21;;;;;;;11.10;10.43;;;;;;;8.79;90.11;92505.41;4990192;28;20220;-80
2022/04/17 08:02:53;;;;;;;10.87;10.17;;;;;;;8.61;91.57;92476.59;4991046;28;20211;-78
2022/04/17 08:05:20;;;;;;;10.67;10.00;;;;;;;8.87;89.67;92496.25;4990597;28;20247;-78
2022/04/17 08:07:46;;;;;;;10.30;9.63;;;;;;;8.91;88.66;92507.66;4990745;28;20236;-78
2022/04/17 08:10:11;;;;;;;10.80;10.20;;;;;;;8.61;90.98;92508.63;4990405;28;20283;-78
2022/04/17 08:12:37;;;;;;;10.07;9.47;;;;;;;8.30;89.63;92509.00;4990307;28;20188;-78
2022/04/17 08:15:02;;;;;;;10.63;9.97;;;;;;;8.22;92.99;92497.31;4989956;28;20232;-78
2022/04/17 08:17:28;;;;;;;11.80;11.10;;;;;;;8.42;93.70;92491.28;4990001;28;20184;-76
2022/04/17 08:19:53;;;;;;;10.67;10.07;;;;;;;8.93;90.68;92506.34;4990045;28;20224;-77
2022/04/17 08:22:19;;;;;;;11.13;10.47;;;;;;;9.03;90.97;92506.28;4990174;28;20239;-77
2022/04/17 08:24:44;;;;;;;11.20;10.40;;;;;;;9.01;90.25;92505.00;4990338;28;20232;-78
2022/04/17 08:27:11;;;;;;;10.77;10.17;;;;;;;8.80;90.72;92482.75;4989268;28;20219;-77
2022/04/17 08:29:36;;;;;;;9.90;9.30;;;;;;;9.03;89.03;92502.88;4990073;28;20232;-77
2022/04/17 08:32:02;;;;;;;11.53;10.77;;;;;;;8.91;91.30;92502.44;4989551;28;20226;-77
2022/04/17 08:34:27;;;;;;;11.87;11.17;;;;;;;9.02;91.01;92501.34;4988811;28;20252;-77
2022/04/17 08:36:54;;;;;;;10.60;10.00;;;;;;;8.72;91.64;92504.13;4990856;28;20231;-78
2022/04/17 08:39:19;;;;;;;10.67;10.07;;;;;;;8.80;89.96;92495.75;4989105;28;20367;-77
2022/04/17 08:41:47;;;;;;;9.33;8.73;;;;;;;8.58;90.31;92469.34;4989962;28;20199;-77
2022/04/17 08:44:13;;;;;;;10.87;10.37;;;;;;;8.89;90.25;92488.91;4988313;28;20336;-77
2022/04/17 08:46:39;;;;;;;9.73;9.27;;;;;;;9.03;88.53;92492.47;4990337;28;20207;-79
2022/04/17 08:49:08;;;;;;;9.27;8.77;;;;;;;9.34;86.73;92509.41;4988365;28;20232;-78
2022/04/17 08:51:35;;;;;;;9.73;9.33;;;;;;;8.88;86.74;92450.94;4987391;28;20179;-79
2022/04/17 08:54:02;;;;;;;9.93;9.43;;;;;;;8.91;87.61;92486.84;4989575;28;20251;-77
2022/04/17 08:56:28;;;;;;;10.90;10.33;;;;;;;9.05;88.38;92508.59;4989387;28;20260;-78
2022/04/17 08:58:54;;;;;;;9.57;9.07;;;;;;;9.14;88.52;92506.97;4989614;28;20228;-78
2022/04/17 09:01:20;;;;;;;10.47;9.87;;;;;;;9.35;87.38;92500.56;4989783;28;20199;-78
2022/04/17 09:03:48;;;;;;;9.03;8.53;;;;;;;9.55;87.56;92508.22;4989628;28;20328;-78
2022/04/17 09:06:18;;;;;;;10.90;10.30;;;;;;;8.25;88.95;92467.44;4989716;28;20215;-78
2022/04/17 09:09:00;;;;;;;9.30;8.90;;;;;;;9.06;89.25;92490.09;4988619;28;20239;-78
2022/04/17 09:11:28;;;;;;;9.50;9.00;;;;;;;9.46;86.51;92494.97;4988566;28;20192;-78
2022/04/17 09:13:55;;;;;;;9.20;8.80;;;;;;;9.26;86.19;92486.59;4989551;28;20220;-77
2022/04/17 09:16:38;;;;;;;9.30;8.87;;;;;;;9.65;85.63;92505.50;4988664;28;20194;-82
2022/04/17 09:19:15;;;;;;;10.27;9.73;;;;;;;9.04;86.45;92494.03;4988367;28;20216;-78
2022/04/17 09:21:41;;;;;;;9.70;9.20;;;;;;;8.86;89.29;92481.66;4986409;28;20270;-78
2022/04/17 09:24:14;;;;;;;8.50;8.10;;;;;;;8.79;88.94;92483.78;4988722;28;20238;-77
2022/04/17 09:26:57;;;;;;;11.90;11.30;;;;;;;9.44;86.42;92480.69;4989455;28;20247;-76
2022/04/17 09:29:30;;;;;;;10.17;9.67;;;;;;;9.33;85.78;92455.78;4989152;28;20223;-78
2022/04/17 09:32:09;;;;;;;9.67;9.13;;;;;;;9.15;86.16;92428.56;4989311;28;20203;-76
2022/04/17 09:34:43;;;;;;;8.80;8.30;;;;;;;9.56;85.71;92466.25;4988123;28;20230;-78
2022/04/17 09:37:35;;;;;;;9.10;8.70;;;;;;;9.52;85.85;92414.94;4987455;28;20188;-77
2022/04/17 09:40:10;;;;;;;9.03;8.63;;;;;;;9.94;85.34;92459.34;4982293;28;20259;-77
2022/04/17 09:42:36;;;;;;;9.23;8.77;;;;;;;10.03;83.48;92457.66;4987847;28;20187;-77
2022/04/17 09:45:07;;;;;;;9.07;8.63;;;;;;;10.17;82.41;92448.16;4988796;28;20780;-78
2022/04/17 09:47:32;;;;;;;9.17;8.77;;;;;;;9.84;81.44;92456.84;4989239;28;20224;-78
2022/04/17 09:50:09;;;;;;;9.20;8.80;;;;;;;9.62;81.00;92446.91;4988693;28;20228;-84
2022/04/17 09:52:41;;;;;;;9.47;8.97;;;;;;;9.61;83.82;92449.78;4988990;28;20208;-77
2022/04/17 09:55:07;;;;;;;10.00;9.30;;;;;;;9.61;85.44;92447.16;4988693;28;20300;-82
2022/04/17 09:57:41;;;;;;;9.37;8.83;;;;;;;9.86;85.24;92454.72;4988014;28;20206;-89
2022/04/17 10:00:18;;;;;;;9.30;8.83;;;;;;;9.61;84.42;92449.78;4989440;28;20228;-79
2022/04/17 10:02:47;;;;;;;10.30;9.70;;;;;;;9.19;86.22;92395.75;4988814;28;20623;-86
2022/04/17 10:05:18;;;;;;;8.80;8.40;;;;;;;8.82;84.05;92426.00;4987630;28;20216;-83
2022/04/17 10:07:46;;;;;;;10.20;9.50;;;;;;;9.33;84.59;92430.50;4987084;28;20216;-80
2022/04/17 10:10:13;;;;;;;9.07;8.67;;;;;;;9.54;83.16;92438.91;4967208;28;20296;-82
2022/04/17 10:12:43;;;;;;;8.67;8.33;;;;;;;9.75;84.97;92448.06;4969726;28;20193;-81
2022/04/17 10:15:11;;;;;;;9.73;9.23;;;;;;;10.16;83.32;92435.38;4988538;28;20220;-82
2022/04/17 10:17:39;;;;;;;10.17;9.70;;;;;;;9.32;82.97;92431.53;4989554;28;20196;-84
2022/04/17 10:20:12;;;;;;;9.77;9.37;;;;;;;9.45;85.79;92414.50;4990371;28;20279;-86
2022/04/17 10:22:39;;;;;;;9.10;8.70;;;;;;;9.51;85.61;92363.88;4992992;28;20216;-86
2022/04/17 10:25:09;;;;;;;7.70;7.30;;;;;;;10.34;81.10;92435.41;4992159;28;20220;-79
2022/04/17 10:27:56;;;;;;;8.73;8.33;;;;;;;10.26;79.67;92420.38;4992934;28;20212;-94
2022/04/17 10:30:37;;;;;;;9.30;8.90;;;;;;;9.86;81.30;92410.41;4990927;28;20200;-86
2022/04/17 10:33:34;;;;;;;9.07;8.70;;;;;;;9.98;80.63;92430.88;4992211;28;20219;-83
2022/04/17 10:36:02;;;;;;;8.90;8.57;;;;;;;9.89;80.69;92440.34;4992180;28;20180;-82
2022/04/17 10:39:06;;;;;;;9.60;9.20;;;;;;;9.74;77.74;92433.50;4991690;28;21840;-86
2022/04/17 10:41:31;;;;;;;9.10;8.70;;;;;;;9.22;82.73;92383.97;4990734;28;20195;-84
2022/04/17 10:43:59;;;;;;;8.67;8.27;;;;;;;9.50;86.57;92414.44;4990467;28;20231;-83
2022/04/17 10:46:25;;;;;;;7.87;7.57;;;;;;;9.46;81.13;92390.75;4998133;28;20278;-83
2022/04/17 10:48:58;;;;;;;9.13;8.67;;;;;;;9.57;82.70;92407.09;4991844;28;20335;-81
2022/04/17 10:51:26;;;;;;;10.80;10.30;;;;;;;9.51;83.23;92413.38;4991817;28;20188;-81
2022/04/17 10:54:06;;;;;;;9.67;9.27;;;;;;;9.41;84.40;92408.28;4990737;28;20224;-84
2022/04/17 10:56:37;;;;;;;10.60;10.10;;;;;;;8.94;84.80;92364.72;4991840;28;20188;-81
2022/04/17 10:59:06;;;;;;;9.00;8.70;;;;;;;8.90;84.38;92331.69;4992143;28;20292;-82
2022/04/17 11:01:44;;;;;;;9.93;9.53;;;;;;;9.14;84.87;92411.41;4991069;28;20222;-82
2022/04/17 11:04:18;;;;;;;8.57;8.17;;;;;;;9.09;86.46;92414.03;4992096;28;20235;-83
2022/04/17 11:06:44;;;;;;;8.67;8.37;;;;;;;9.24;85.23;92413.16;4992210;28;20231;-84
2022/04/17 11:09:12;;;;;;;8.80;8.50;;;;;;;9.32;87.12;92407.34;4990375;28;20242;-86
2022/04/17 11:11:38;;;;;;;8.07;7.77;;;;;;;9.49;85.71;92395.41;4992694;28;20264;-82
2022/04/17 11:14:11;;;;;;;8.20;7.90;;;;;;;9.46;85.59;92385.56;4991776;28;20304;-87
2022/04/17 11:16:53;;;;;;;7.50;7.23;;;;;;;9.77;81.38;92410.22;4991606;28;20192;-87
2022/04/17 11:19:31;;;;;;;8.10;7.80;;;;;;;9.63;83.65;92379.91;4991042;28;20247;-81
2022/04/17 11:22:02;;;;;;;7.60;7.40;;;;;;;10.01;83.01;92409.47;4990758;28;20278;-84
2022/04/17 11:24:48;;;;;;;8.93;8.53;;;;;;;9.56;83.76;92354.19;4991188;28;20223;-79
2022/04/17 11:27:14;;;;;;;7.80;7.50;;;;;;;9.68;85.30;92383.22;4991116;28;20216;-79
2022/04/17 11:29:45;;;;;;;7.77;7.57;;;;;;;9.89;84.56;92415.06;4982274;28;20220;-80
2022/04/17 11:32:16;;;;;;;7.80;7.50;;;;;;;9.94;84.10;92412.41;4990822;28;20259;-74
2022/04/17 11:34:43;;;;;;;8.37;8.07;;;;;;;9.79;80.57;92423.00;4990987;28;20798;-79
2022/04/17 11:37:09;;;;;;;10.33;9.87;;;;;;;9.52;79.32;92383.69;4990337;28;20204;-80
2022/04/17 11:39:36;;;;;;;8.80;8.43;;;;;;;9.38;81.18;92424.47;4990317;28;20242;-82
2022/04/17 11:42:02;;;;;;;12.00;11.00;;;;;;;8.55;84.75;92378.81;4990630;28;20195;-83
2022/04/17 11:44:27;;;;;;;10.50;9.77;;;;;;;8.40;86.95;92334.72;4989586;28;21130;-79
2022/04/17 11:46:53;;;;;;;11.70;11.00;;;;;;;8.95;86.32;92399.34;4990989;28;20282;-77